Time Latitude Longitude Accuracy (66% radius in meters) Altitude (meters) Speed (km/hour) Bearing (degrees) Battery (%) GPS flag
12:40:17 57.203766 60.120614 48 325.83905926271 2.6070830821991 180.31481933594 6 0 delete
12:39:50 57.203766 60.120614 48 325.83905926271 2.6070830821991 180.31481933594 6 0 delete
12:39:20 57.203766 60.120614 48 325.83905926271 2.6070830821991 180.31481933594 6 0 delete
12:38:47 57.203766 60.120614 48 325.83905926271 2.6070830821991 180.31481933594 6 0 delete
11:37:14 57.203766 60.120614 48 325.83905926271 2.6070830821991 180.31481933594 6 1 delete
11:37:11 57.203927 60.120598 64 325.55768818777 2.0148279666901 182.83457946777 6 1 delete
11:37:05 57.204188 60.120560 48 325.33902917036 1.2827147245407 187.78149414062 6 1 delete
11:37:02 57.204289 60.120548 64 325.2494143738 1.1358995437622 192.53700256348 6 1 delete
11:36:52 57.204470 60.120606 48 325.05737015442 0.99142438173294 204.6040802002 6 1 delete
11:36:34 57.204534 60.120746 24 325.07919954939 0 109.84925079346 6 1 delete
11:36:27 57.204548 60.120804 24 325.11039678661 0 109.84925079346 6 1 delete
11:36:13 57.204550 60.120797 16 325.25680076863 0 109.84925079346 6 1 delete
11:35:53 57.204542 60.120840 12 325.23433615248 0 109.84925079346 6 1 delete
11:35:40 57.204534 60.120868 16 325.21064159892 0 109.84925079346 6 1 delete
11:35:28 57.204557 60.120861 16 324.96771390077 0 109.84925079346 6 1 delete
11:35:14 57.204559 60.120862 16 323.93461648011 0 109.84925079346 6 1 delete
11:35:01 57.204559 60.120862 12 323.6077921787 0 109.84925079346 6 1 delete
11:34:49 57.204563 60.120842 6 322.92181083511 0 109.84925079346 6 1 delete
11:34:36 57.204545 60.120856 6 322.13097114986 0 109.84925079346 6 1 delete
11:34:24 57.204540 60.120840 6 321.80279509554 0 109.84925079346 6 1 delete
11:34:14 57.204529 60.120809 12 321.59527732733 0 109.84925079346 6 1 delete
11:34:04 57.204596 60.120874 8 321.63428593366 2.9118535518646 228.05435180664 6 1 delete
11:34:02 57.204647 60.120975 8 321.56538723607 2.1389782428741 235.99868774414 6 1 delete
11:33:58 57.204672 60.121045 8 321.38414061013 0 52.766666412354 6 1 delete
11:33:54 57.204611 60.120917 6 321.24797352964 3.8458344936371 57.159629821777 6 1 delete
11:33:51 57.204540 60.120743 6 321.2969221869 3.8177711963654 50.150634765625 6 1 delete
11:33:48 57.204466 60.120559 6 320.55927875922 3.5568804740906 69.034515380859 6 1 delete
11:33:45 57.204453 60.120327 6 321.53910486193 3.3115808963776 88.030227661133 6 1 delete
11:33:42 57.204457 60.120152 6 321.7554319317 3.2290062904358 89.833953857422 6 1 delete
11:33:39 57.204427 60.119981 6 321.89155180263 3.1929111480713 70.405822753906 6 1 delete
11:33:36 57.204369 60.119812 8 321.8678843158 2.9643526077271 60.868103027344 6 1 delete
11:33:33 57.204311 60.119658 6 321.68489012636 2.7691996097565 58.347843170166 6 1 delete
11:33:30 57.204252 60.119506 8 321.49436015519 2.5939869880676 55.07719039917 6 1 delete
11:33:27 57.204206 60.119356 6 321.34202208583 2.4730699062347 59.986110687256 6 1 delete
11:33:23 57.204137 60.119200 6 321.06238667852 2.4341685771942 38.865837097168 6 1 delete
11:33:19 57.204066 60.119095 8 320.79839696805 2.4769756793976 41.321025848389 6 1 delete
11:33:16 57.204010 60.118999 8 320.53852270726 2.0790123939514 33.464134216309 6 1 delete
11:33:15 57.203991 60.118971 12 320.51445228939 1.7688580751419 38.578838348389 6 1 delete
11:33:05 57.203928 60.118893 8 320.35803175007 0 29.538677215576 6 1 delete
11:33:00 57.203900 60.118858 8 320.25681738316 1.4719343185425 34.721050262451 6 1 delete
11:32:51 57.203811 60.118806 6 320.33295329139 0 319.62680053711 6 1 delete
11:32:39 57.203822 60.118796 6 320.40784826987 1.6678159236908 116.11281585693 6 1 delete
11:32:35 57.203838 60.118733 6 320.11069092579 1.8788312673569 101.09545135498 6 1 delete
11:32:31 57.203862 60.118561 6 319.96860406318 1.9105535745621 110.95621490479 6 1 delete
11:32:27 57.203898 60.118400 6 320.00943812131 1.813946723938 127.27052307129 6 1 delete
11:32:14 57.203944 60.118180 12 321.15606445626 0 306.14428710938 6 1 delete
11:32:00 57.203938 60.118203 12 321.11761686442 0 306.14428710938 6 1 delete
11:31:45 57.203929 60.118231 8 319.95515758768 0 26.851579666138 6 1 delete
11:31:32 57.203924 60.118250 12 319.82251832835 0 149.67124938965 6 1 delete
11:31:20 57.203922 60.118260 8 319.93833299937 0 149.67124938965 6 1 delete